AirNav   ATP
 
 1441 users online  

KSAS Salton Sea Airport
Salton City, California, USA


FAA INFORMATION EFFECTIVE 07 DECEMBER 2017

Location

FAA Identifier: SAS
Lat/Long: 33-14-28.3000N / 115-57-09.3000W
33-14.471667N / 115-57.155000W
33.2411944 / -115.9525833
(estimated)
Elevation: -84 ft. / -26 m (estimated)
Variation: 13E (1985)
From city: 1 mile SW of SALTON CITY, CA
Time zone: UTC -8 (UTC -7 during Daylight Saving Time)
Zip code: 92275

Airport Operations

Airport use: Open to the public
Activation date: 01/1960
Control tower: no
ARTCC: LOS ANGELES CENTER
FSS: SAN DIEGO FLIGHT SERVICE STATION
NOTAMs facility: SAN (NOTAM-D service available)
Attendance: UNATNDD
Pattern altitude: 716 ft. MSL
Wind indicator: yes
Segmented circle: yes

Airport Communications

CTAF: 122.9
WX AWOS-1 at L08 (19 nm W): 126.575 (760-767-3308)

Nearby radio navigation aids

VOR radial/distance  VOR name  Freq  Var
TRMr143/25.4THERMAL VORTAC116.2013E
JLIr064/32.4JULIAN VORTAC114.0015E
IPLr309/37.0IMPERIAL VORTAC115.9014E

Airport Services

Parking: tiedowns
Airframe service: NONE
Powerplant service: NONE
Bottled oxygen: NONE
Bulk oxygen: NONE

Runway Information

Runway 7/25

Dimensions: 5000 x 75 ft. / 1524 x 23 m
Surface: gravel, in good condition
Weight bearing capacity: 
Single wheel: 28.0
Runway edge markings: RY 07 AND RY 25 WHITE THLD BARS ARE ONLY MARKINGS ON RY.
RUNWAY 7  RUNWAY 25
Latitude: 33-14.433833N33-14.508167N
Longitude: 115-57.644333W115-56.667000W
Traffic pattern: rightleft
Runway end identifier lights: nono

Airport Ownership and Management from official FAA records

Ownership: Privately-owned
Owner: BURRTEC WASTE INDUSTRIES
9890 CHERRY AVENUE
FONTANA, CA 92335
Phone (909) 429-4200
Manager: DEBBIE HANSEN
9890 CHERRY AVENUE
FONTANA, CA 92335
Phone (909) 429-4200

Airport Operational Statistics

Aircraft operations: avg 29/month *
100% transient general aviation
* for 12-month period ending 31 May 2017

Additional Remarks

LOOSE GRVL INVOF PARKING AREA.
OCCASIONAL ULTRALIGHT ACTIVITY ON WEEKENDS.

Instrument Procedures

There are no published instrument procedures at KSAS.

Some nearby airports with instrument procedures:

L08 - Borrego Valley Airport (19 nm W)
KCLR - Cliff Hatfield Memorial Airport (23 nm E)
KTRM - Jacqueline Cochran Regional Airport (25 nm NW)
KBWC - Brawley Municipal Airport (26 nm SE)
KNJK - El Centro NAF Airport (29 nm SE)
 
Loc | Ops | Rwys | IFR | FBO | Links
Com | Nav | Svcs | Stats | Notes


 
Area around KSAS (Salton Sea Airport)
 
Road maps at: MapQuest Bing Google
 
Aerial photo
WARNING: Photo may not be current or correct
Aerial photo of KSAS (Salton Sea Airport)
Photo by Mark Holtzman
Photo taken 12-May-2017
looking west.

Do you have a better or more recent aerial photo of Salton Sea Airport that you would like to share? If so, please send us your photo.

 
Sectional chart

 
Airport distance calculator
Flying to Salton Sea Airport? Find the distance to fly.

From to KSAS

Sunrise and sunset
Times for 18-Dec-2017
 Local
(UTC-8)
 Zulu
(UTC)
Morning civil twilight06:1514:15
Sunrise06:4314:43
Sunset16:3800:38
Evening civil twilight17:0601:06

Current date and time
Zulu (UTC)  18-Dec-2017 15:47:14
Local (UTC-8)  18-Dec-2017 07:47:14
 
METAR
KTRM 
26nm NW 
181452Z AUTO 28005KT 10SM CLR 04/M06 A3014 RMK AO2 SLP205 T00441056 53014
KNJK 
29nm SE 
181456Z 27007KT 10SM CLR 04/M08 A3016 RMK AO2 SLP228 T00441083 51014 $
KIPL 
31nm SE 
181453Z AUTO 26006KT 10SM CLR 06/M06 A3014 RMK AO2 SLP204 T00561061 51014 TSNO
KPSP 
44nm NW 
181453Z 36006KT 10SM CLR 09/M07 A3017 RMK AO2 SLP217 T00891067 53012
KCZZ 
45nm SW 
181452Z AUTO 00000KT M02/M09 A3012 RMK AO1 SLP198 T10171089 53012
TAF
KTRM 
26nm NW 
181120Z 1812/1912 VRB06KT P6SM SKC
KIPL 
31nm SE 
181120Z 1812/1912 28006KT P6SM SKC FM181600 VRB03KT P6SM SKC FM190300 24004KT P6SM FEW250
NOTAMs
Click for the latest NOTAMs
NOTAMs are issued by the DoD/FAA and will open in a separate window not controlled by AirNav.

 

 
 

Would you like to see your business listed on this page?

 If your business provides an interesting product or service to pilots, flight crews, aircraft, or users of the Salton Sea Airport, you should consider listing it here.  To start the listing process, click on the button below
 
Add a business
 

Other Pages about Salton Sea Airport

Update a link
 
Copyright © AirNav, LLC. All rights reserved. Privacy Policy  Contact